sensor_id;sensor_type;location;lat;lon;timestamp;pressure;altitude;pressure_sealevel;temperature;humidity
63700;BME280;49845;47.130;142.766;2023-06-10T00:02:21;100596.00;;;9.31;100.00
63700;BME280;49845;47.130;142.766;2023-06-10T00:04:52;100591.66;;;9.27;100.00
63700;BME280;49845;47.130;142.766;2023-06-10T00:07:23;100598.59;;;9.28;100.00
63700;BME280;49845;47.130;142.766;2023-06-10T00:09:53;100597.72;;;9.26;100.00
63700;BME280;49845;47.130;142.766;2023-06-10T00:12:24;100596.00;;;9.31;100.00
63700;BME280;49845;47.130;142.766;2023-06-10T00:14:59;100609.84;;;9.39;100.00
63700;BME280;49845;47.130;142.766;2023-06-10T00:17:29;100608.91;;;9.43;100.00
63700;BME280;49845;47.130;142.766;2023-06-10T00:20:01;100599.34;;;9.47;100.00
63700;BME280;49845;47.130;142.766;2023-06-10T00:22:36;100606.25;;;9.53;100.00
63700;BME280;49845;47.130;142.766;2023-06-10T00:25:08;100608.88;;;9.53;100.00
63700;BME280;49845;47.130;142.766;2023-06-10T00:27:39;100609.72;;;9.58;100.00
63700;BME280;49845;47.130;142.766;2023-06-10T00:30:12;100613.22;;;9.57;100.00
63700;BME280;49845;47.130;142.766;2023-06-10T00:32:43;100616.69;;;9.59;100.00
63700;BME280;49845;47.130;142.766;2023-06-10T00:35:14;100608.78;;;9.63;100.00
63700;BME280;49845;47.130;142.766;2023-06-10T00:37:44;100601.03;;;9.56;100.00
63700;BME280;49845;47.130;142.766;2023-06-10T00:40:15;100611.47;;;9.56;100.00
63700;BME280;49845;47.130;142.766;2023-06-10T00:42:46;100596.69;;;9.53;100.00
63700;BME280;49845;47.130;142.766;2023-06-10T00:45:18;100597.59;;;9.54;100.00
63700;BME280;49845;47.130;142.766;2023-06-10T00:47:48;100594.97;;;9.52;100.00
63700;BME280;49845;47.130;142.766;2023-06-10T00:50:20;100595.84;;;9.49;100.00
63700;BME280;49845;47.130;142.766;2023-06-10T00:52:50;100595.88;;;9.46;100.00
63700;BME280;49845;47.130;142.766;2023-06-10T00:55:22;100601.06;;;9.49;100.00
63700;BME280;49845;47.130;142.766;2023-06-10T00:57:55;100599.28;;;9.58;100.00
63700;BME280;49845;47.130;142.766;2023-06-10T01:00:27;100614.03;;;9.62;100.00
63700;BME280;49845;47.130;142.766;2023-06-10T01:02:58;100606.25;;;9.59;100.00
63700;BME280;49845;47.130;142.766;2023-06-10T01:05:29;100604.50;;;9.55;100.00
63700;BME280;49845;47.130;142.766;2023-06-10T01:08:03;100599.34;;;9.48;100.00
63700;BME280;49845;47.130;142.766;2023-06-10T01:10:41;100601.88;;;9.58;100.00
63700;BME280;49845;47.130;142.766;2023-06-10T01:13:14;100600.13;;;9.60;100.00
63700;BME280;49845;47.130;142.766;2023-06-10T01:15:48;100604.47;;;9.61;100.00
63700;BME280;49845;47.130;142.766;2023-06-10T01:18:19;100603.56;;;9.63;100.00
63700;BME280;49845;47.130;142.766;2023-06-10T01:20:55;100602.75;;;9.60;100.00
63700;BME280;49845;47.130;142.766;2023-06-10T01:23:27;100596.63;;;9.61;100.00
63700;BME280;49845;47.130;142.766;2023-06-10T01:26:02;100592.34;;;9.57;100.00
63700;BME280;49845;47.130;142.766;2023-06-10T01:28:38;100571.50;;;9.54;100.00
63700;BME280;49845;47.130;142.766;2023-06-10T01:31:17;100593.94;;;9.73;100.00
63700;BME280;49845;47.130;142.766;2023-06-10T01:33:52;100589.53;;;9.80;100.00
63700;BME280;49845;47.130;142.766;2023-06-10T01:36:24;100593.81;;;9.91;100.00
63700;BME280;49845;47.130;142.766;2023-06-10T01:38:56;100582.50;;;9.89;100.00
63700;BME280;49845;47.130;142.766;2023-06-10T01:41:30;100596.38;;;9.93;100.00
63700;BME280;49845;47.130;142.766;2023-06-10T01:44:01;100589.47;;;9.86;100.00
63700;BME280;49845;47.130;142.766;2023-06-10T01:46:31;100571.41;;;9.63;100.00
63700;BME280;49845;47.130;142.766;2023-06-10T01:49:02;100588.72;;;9.76;100.00
63700;BME280;49845;47.130;142.766;2023-06-10T01:51:33;100587.81;;;9.77;100.00
63700;BME280;49845;47.130;142.766;2023-06-10T01:54:06;100589.56;;;9.75;100.00
63700;BME280;49845;47.130;142.766;2023-06-10T01:56:36;100602.63;;;9.75;100.00
63700;BME280;49845;47.130;142.766;2023-06-10T01:59:07;100588.66;;;9.82;100.00
63700;BME280;49845;47.130;142.766;2023-06-10T02:01:38;100589.47;;;9.89;100.00
63700;BME280;49845;47.130;142.766;2023-06-10T02:04:08;100583.38;;;9.91;100.00
63700;BME280;49845;47.130;142.766;2023-06-10T02:06:39;100578.16;;;9.91;100.00
63700;BME280;49845;47.130;142.766;2023-06-10T02:09:11;100579.88;;;9.92;100.00
63700;BME280;49845;47.130;142.766;2023-06-10T02:11:46;100584.16;;;9.98;100.00
63700;BME280;49845;47.130;142.766;2023-06-10T02:14:17;100581.56;;;10.00;100.00
63700;BME280;49845;47.130;142.766;2023-06-10T02:16:48;100580.66;;;10.04;100.00
63700;BME280;49845;47.130;142.766;2023-06-10T02:19:19;100580.63;;;10.08;100.00
63700;BME280;49845;47.130;142.766;2023-06-10T02:21:50;100573.59;;;10.12;100.00
63700;BME280;49845;47.130;142.766;2023-06-10T02:24:22;100577.94;;;10.13;100.00
63700;BME280;49845;47.130;142.766;2023-06-10T02:26:53;100571.00;;;10.12;100.00
63700;BME280;49845;47.130;142.766;2023-06-10T02:29:24;100574.47;;;10.14;100.00
63700;BME280;49845;47.130;142.766;2023-06-10T02:31:54;100543.25;;;10.02;100.00
63700;BME280;49845;47.130;142.766;2023-06-10T02:34:25;100548.34;;;10.14;100.00
63700;BME280;49845;47.130;142.766;2023-06-10T02:36:55;100559.63;;;10.19;100.00
63700;BME280;49845;47.130;142.766;2023-06-10T02:39:28;100544.75;;;10.29;100.00
63700;BME280;49845;47.130;142.766;2023-06-10T02:41:58;100548.22;;;10.29;100.00
63700;BME280;49845;47.130;142.766;2023-06-10T02:44:29;100547.22;;;10.40;100.00
63700;BME280;49845;47.130;142.766;2023-06-10T02:47:00;100541.03;;;10.50;100.00
63700;BME280;49845;47.130;142.766;2023-06-10T02:49:30;100530.44;;;10.62;100.00
63700;BME280;49845;47.130;142.766;2023-06-10T02:52:01;100523.34;;;10.70;100.00
63700;BME280;49845;47.130;142.766;2023-06-10T02:54:33;100518.06;;;10.76;100.00
63700;BME280;49845;47.130;142.766;2023-06-10T02:57:04;100523.06;;;10.92;100.00
63700;BME280;49845;47.130;142.766;2023-06-10T02:59:36;100517.84;;;10.92;100.00
63700;BME280;49845;47.130;142.766;2023-06-10T03:02:06;100491.81;;;10.83;100.00
63700;BME280;49845;47.130;142.766;2023-06-10T03:04:38;100520.44;;;10.93;100.00
63700;BME280;49845;47.130;142.766;2023-06-10T03:07:10;100479.72;;;10.75;100.00
63700;BME280;49845;47.130;142.766;2023-06-10T03:09:47;100516.81;;;11.04;100.00
63700;BME280;49845;47.130;142.766;2023-06-10T03:12:18;100516.81;;;11.04;100.00
63700;BME280;49845;47.130;142.766;2023-06-10T03:14:49;100534.13;;;11.12;100.00
63700;BME280;49845;47.130;142.766;2023-06-10T03:17:20;100528.81;;;11.18;100.00
63700;BME280;49845;47.130;142.766;2023-06-10T03:19:51;100515.03;;;11.06;100.00
63700;BME280;49845;47.130;142.766;2023-06-10T03:22:21;100526.38;;;11.03;100.00
63700;BME280;49845;47.130;142.766;2023-06-10T03:24:56;100522.97;;;11.01;100.00
63700;BME280;49845;47.130;142.766;2023-06-10T03:27:28;100521.31;;;10.94;100.00
63700;BME280;49845;47.130;142.766;2023-06-10T03:29:58;100526.59;;;10.91;100.00
63700;BME280;49845;47.130;142.766;2023-06-10T03:32:29;100518.00;;;10.79;100.00
63700;BME280;49845;47.130;142.766;2023-06-10T03:35:00;100529.28;;;10.83;100.00
63700;BME280;49845;47.130;142.766;2023-06-10T03:37:31;100510.22;;;10.76;100.00
63700;BME280;49845;47.130;142.766;2023-06-10T03:40:04;100519.00;;;10.69;100.00
63700;BME280;49845;47.130;142.766;2023-06-10T03:42:35;100518.22;;;10.64;100.00
63700;BME280;49845;47.130;142.766;2023-06-10T03:45:07;100526.91;;;10.66;100.00
63700;BME280;49845;47.130;142.766;2023-06-10T03:47:39;100529.41;;;10.72;100.00
63700;BME280;49845;47.130;142.766;2023-06-10T03:50:11;100525.00;;;10.79;100.00
63700;BME280;49845;47.130;142.766;2023-06-10T03:52:42;100538.81;;;10.89;100.00
63700;BME280;49845;47.130;142.766;2023-06-10T03:55:16;100536.94;;;10.97;100.00
63700;BME280;49845;47.130;142.766;2023-06-10T03:57:46;100529.81;;;11.08;100.00
63700;BME280;49845;47.130;142.766;2023-06-10T04:00:17;100527.19;;;11.10;100.00
63700;BME280;49845;47.130;142.766;2023-06-10T04:02:50;100528.00;;;11.13;100.00
63700;BME280;49845;47.130;142.766;2023-06-10T04:05:20;100391.47;;;10.32;100.00
63700;BME280;49845;47.130;142.766;2023-06-10T04:07:51;100534.06;;;11.17;100.00
63700;BME280;49845;47.130;142.766;2023-06-10T04:10:24;100489.09;;;10.92;100.00
63700;BME280;49845;47.130;142.766;2023-06-10T04:12:54;100526.25;;;11.12;100.00
63700;BME280;49845;47.130;142.766;2023-06-10T04:15:25;100525.41;;;11.10;100.00
63700;BME280;49845;47.130;142.766;2023-06-10T04:17:56;100519.50;;;10.99;100.00
63700;BME280;49845;47.130;142.766;2023-06-10T04:20:27;100512.63;;;10.92;100.00
63700;BME280;49845;47.130;142.766;2023-06-10T04:22:58;100524.78;;;10.96;100.00
63700;BME280;49845;47.130;142.766;2023-06-10T04:25:31;100524.72;;;10.99;100.00
63700;BME280;49845;47.130;142.766;2023-06-10T04:28:02;100521.25;;;10.97;100.00
63700;BME280;49845;47.130;142.766;2023-06-10T04:30:32;100504.13;;;10.74;100.00
63700;BME280;49845;47.130;142.766;2023-06-10T04:33:03;100521.38;;;10.88;100.00
63700;BME280;49845;47.130;142.766;2023-06-10T04:35:37;100524.88;;;10.87;100.00
63700;BME280;49845;47.130;142.766;2023-06-10T04:38:07;100522.22;;;10.88;100.00
63700;BME280;49845;47.130;142.766;2023-06-10T04:40:39;100511.88;;;10.84;100.00
63700;BME280;49845;47.130;142.766;2023-06-10T04:43:13;100521.25;;;10.97;100.00
63700;BME280;49845;47.130;142.766;2023-06-10T04:45:44;100514.28;;;10.97;100.00
63700;BME280;49845;47.130;142.766;2023-06-10T04:48:15;100512.56;;;10.95;100.00
63700;BME280;49845;47.130;142.766;2023-06-10T04:50:45;100514.38;;;10.90;100.00
63700;BME280;49845;47.130;142.766;2023-06-10T04:53:16;100531.63;;;11.03;100.00
63700;BME280;49845;47.130;142.766;2023-06-10T04:55:48;100533.31;;;11.07;100.00
63700;BME280;49845;47.130;142.766;2023-06-10T04:58:19;100527.06;;;11.17;100.00
63700;BME280;49845;47.130;142.766;2023-06-10T05:00:49;100522.63;;;11.22;100.00
63700;BME280;49845;47.130;142.766;2023-06-10T05:03:20;100512.09;;;11.26;100.00
63700;BME280;49845;47.130;142.766;2023-06-10T05:05:51;100505.09;;;11.31;100.00
63700;BME280;49845;47.130;142.766;2023-06-10T05:08:21;100505.94;;;11.30;100.00
63700;BME280;49845;47.130;142.766;2023-06-10T05:10:54;100499.88;;;11.28;100.00
63700;BME280;49845;47.130;142.766;2023-06-10T05:13:25;100492.88;;;11.30;100.00
63700;BME280;49845;47.130;142.766;2023-06-10T05:15:55;100500.66;;;11.33;100.00
63700;BME280;49845;47.130;142.766;2023-06-10T05:18:26;100488.53;;;11.29;100.00
63700;BME280;49845;47.130;142.766;2023-06-10T05:20:57;100484.19;;;11.28;100.00
63700;BME280;49845;47.130;142.766;2023-06-10T05:23:27;100485.88;;;11.32;100.00
63700;BME280;49845;47.130;142.766;2023-06-10T05:26:00;100470.25;;;11.26;100.00
63700;BME280;49845;47.130;142.766;2023-06-10T05:28:31;100482.41;;;11.30;100.00
63700;BME280;49845;47.130;142.766;2023-06-10T05:31:01;100477.13;;;11.33;100.00
63700;BME280;49845;47.130;142.766;2023-06-10T05:33:32;100447.75;;;11.15;100.00
63700;BME280;49845;47.130;142.766;2023-06-10T05:36:03;100485.75;;;11.38;100.00
63700;BME280;49845;47.130;142.766;2023-06-10T05:38:33;100478.75;;;11.40;100.00
63700;BME280;49845;47.130;142.766;2023-06-10T05:41:05;100475.28;;;11.41;100.00
63700;BME280;49845;47.130;142.766;2023-06-10T05:43:36;100477.03;;;11.39;100.00
63700;BME280;49845;47.130;142.766;2023-06-10T05:46:07;100466.63;;;11.36;100.00
63700;BME280;49845;47.130;142.766;2023-06-10T05:48:37;100476.00;;;11.48;100.00
63700;BME280;49845;47.130;142.766;2023-06-10T05:51:08;100472.66;;;11.41;100.00
63700;BME280;49845;47.130;142.766;2023-06-10T05:53:39;100478.66;;;11.46;100.00
63700;BME280;49845;47.130;142.766;2023-06-10T05:56:11;100476.88;;;11.48;100.00
63700;BME280;49845;47.130;142.766;2023-06-10T05:58:42;100469.97;;;11.44;100.00
63700;BME280;49845;47.130;142.766;2023-06-10T06:01:12;100471.69;;;11.45;100.00
63700;BME280;49845;47.130;142.766;2023-06-10T06:03:43;100469.91;;;11.47;100.00
63700;BME280;49845;47.130;142.766;2023-06-10T06:06:14;100470.75;;;11.51;100.00
63700;BME280;49845;47.130;142.766;2023-06-10T06:08:45;100468.13;;;11.51;100.00
63700;BME280;49845;47.130;142.766;2023-06-10T06:11:17;100468.09;;;11.52;100.00
63700;BME280;49845;47.130;142.766;2023-06-10T06:13:48;100465.41;;;11.57;100.00
63700;BME280;49845;47.130;142.766;2023-06-10T06:16:20;100468.91;;;11.56;100.00
63700;BME280;49845;47.130;142.766;2023-06-10T06:18:51;100464.69;;;11.47;100.00
63700;BME280;49845;47.130;142.766;2023-06-10T06:21:21;100470.75;;;11.49;100.00
63700;BME280;49845;47.130;142.766;2023-06-10T06:23:52;100467.22;;;11.52;100.00
63700;BME280;49845;47.130;142.766;2023-06-10T06:26:24;100471.59;;;11.51;100.00
63700;BME280;49845;47.130;142.766;2023-06-10T06:28:55;100471.50;;;11.57;100.00
63700;BME280;49845;47.130;142.766;2023-06-10T06:31:26;100457.63;;;11.52;100.00
63700;BME280;49845;47.130;142.766;2023-06-10T06:33:56;100431.66;;;11.40;100.00
63700;BME280;49845;47.130;142.766;2023-06-10T06:36:27;100470.50;;;11.63;100.00
63700;BME280;49845;47.130;142.766;2023-06-10T06:38:58;100462.66;;;11.64;100.00
63700;BME280;49845;47.130;142.766;2023-06-10T06:41:30;100459.03;;;11.70;100.00
63700;BME280;49845;47.130;142.766;2023-06-10T06:44:01;100460.72;;;11.76;100.00
63700;BME280;49845;47.130;142.766;2023-06-10T06:46:32;100459.03;;;11.72;100.00
63700;BME280;49845;47.130;142.766;2023-06-10T06:49:03;100466.03;;;11.70;100.00
63700;BME280;49845;47.130;142.766;2023-06-10T06:51:34;100459.13;;;11.65;100.00
63700;BME280;49845;47.130;142.766;2023-06-10T06:54:05;100455.72;;;11.60;100.00
63700;BME280;49845;47.130;142.766;2023-06-10T06:56:38;100459.31;;;11.56;100.00
63700;BME280;49845;47.130;142.766;2023-06-10T06:59:08;100467.25;;;11.50;100.00
63700;BME280;49845;47.130;142.766;2023-06-10T07:01:39;100463.88;;;11.43;100.00
63700;BME280;49845;47.130;142.766;2023-06-10T07:04:09;100464.75;;;11.44;100.00
63700;BME280;49845;47.130;142.766;2023-06-10T07:06:40;100463.91;;;11.40;100.00
63700;BME280;49845;47.130;142.766;2023-06-10T07:09:11;100470.03;;;11.41;100.00
63700;BME280;49845;47.130;142.766;2023-06-10T07:11:43;100466.53;;;11.42;100.00
63700;BME280;49845;47.130;142.766;2023-06-10T07:14:14;100466.56;;;11.39;100.00
63700;BME280;49845;47.130;142.766;2023-06-10T07:16:44;100463.19;;;11.34;100.00
63700;BME280;49845;47.130;142.766;2023-06-10T07:19:17;100463.22;;;11.31;100.00
63700;BME280;49845;47.130;142.766;2023-06-10T07:21:47;100467.63;;;11.29;100.00
63700;BME280;49845;47.130;142.766;2023-06-10T07:24:18;100455.47;;;11.23;100.00
63700;BME280;49845;47.130;142.766;2023-06-10T07:26:51;100452.97;;;11.18;100.00
63700;BME280;49845;47.130;142.766;2023-06-10T07:29:21;100446.09;;;11.11;100.00
63700;BME280;49845;47.130;142.766;2023-06-10T07:31:52;100452.91;;;11.21;100.00
63700;BME280;49845;47.130;142.766;2023-06-10T07:34:23;100456.31;;;11.27;100.00
63700;BME280;49845;47.130;142.766;2023-06-10T07:36:55;100459.91;;;11.19;100.00
63700;BME280;49845;47.130;142.766;2023-06-10T07:39:26;100458.31;;;11.09;100.00
63700;BME280;49845;47.130;142.766;2023-06-10T07:41:58;100452.25;;;11.07;100.00
63700;BME280;49845;47.130;142.766;2023-06-10T07:44:29;100380.63;;;10.60;100.00
63700;BME280;49845;47.130;142.766;2023-06-10T07:47:00;100449.75;;;10.98;100.00
63700;BME280;49845;47.130;142.766;2023-06-10T07:49:31;100458.41;;;11.03;100.00
63700;BME280;49845;47.130;142.766;2023-06-10T07:52:01;100449.75;;;11.01;100.00
63700;BME280;49845;47.130;142.766;2023-06-10T07:54:32;100452.44;;;10.95;100.00
63700;BME280;49845;47.130;142.766;2023-06-10T07:57:05;100448.09;;;10.94;100.00
63700;BME280;49845;47.130;142.766;2023-06-10T07:59:36;100449.88;;;10.92;100.00
63700;BME280;49845;47.130;142.766;2023-06-10T08:02:07;100439.50;;;10.86;100.00
63700;BME280;49845;47.130;142.766;2023-06-10T08:04:38;100453.34;;;10.92;100.00
63700;BME280;49845;47.130;142.766;2023-06-10T08:07:08;100451.63;;;10.90;100.00
63700;BME280;49845;47.130;142.766;2023-06-10T08:09:39;100456.81;;;10.93;100.00
63700;BME280;49845;47.130;142.766;2023-06-10T08:12:11;100460.41;;;10.86;100.00
63700;BME280;49845;47.130;142.766;2023-06-10T08:14:42;100453.47;;;10.85;100.00
63700;BME280;49845;47.130;142.766;2023-06-10T08:17:12;100448.22;;;10.85;100.00
63700;BME280;49845;47.130;142.766;2023-06-10T08:19:43;100453.47;;;10.85;100.00
63700;BME280;49845;47.130;142.766;2023-06-10T08:22:14;100450.03;;;10.79;100.00
63700;BME280;49845;47.130;142.766;2023-06-10T08:24:45;100443.09;;;10.78;100.00
63700;BME280;49845;47.130;142.766;2023-06-10T08:27:18;100446.50;;;10.84;100.00
63700;BME280;49845;47.130;142.766;2023-06-10T08:29:48;100455.22;;;10.83;100.00
63700;BME280;49845;47.130;142.766;2023-06-10T08:32:19;100456.97;;;10.84;100.00
63700;BME280;49845;47.130;142.766;2023-06-10T08:34:50;100449.16;;;10.80;100.00
63700;BME280;49845;47.130;142.766;2023-06-10T08:37:20;100453.50;;;10.82;100.00
63700;BME280;49845;47.130;142.766;2023-06-10T08:39:51;100452.59;;;10.84;100.00
63700;BME280;49845;47.130;142.766;2023-06-10T08:42:27;100368.00;;;10.29;100.00
63700;BME280;49845;47.130;142.766;2023-06-10T08:44:58;100450.09;;;10.76;100.00
63700;BME280;49845;47.130;142.766;2023-06-10T08:47:31;100429.25;;;10.70;100.00
63700;BME280;49845;47.130;142.766;2023-06-10T08:50:05;100450.16;;;10.70;100.00
63700;BME280;49845;47.130;142.766;2023-06-10T08:52:42;100371.47;;;10.30;100.00
63700;BME280;49845;47.130;142.766;2023-06-10T08:55:17;100393.91;;;10.43;100.00
63700;BME280;49845;47.130;142.766;2023-06-10T08:57:50;100430.22;;;10.66;100.00
63700;BME280;49845;47.130;142.766;2023-06-10T09:00:21;100415.56;;;10.53;100.00
63700;BME280;49845;47.130;142.766;2023-06-10T09:02:53;100426.75;;;10.63;100.00
63700;BME280;49845;47.130;142.766;2023-06-10T09:05:29;100424.19;;;10.60;100.00
63700;BME280;49845;47.130;142.766;2023-06-10T09:08:02;100410.28;;;10.59;100.00
63700;BME280;49845;47.130;142.766;2023-06-10T09:10:38;100421.59;;;10.58;100.00
63700;BME280;49845;47.130;142.766;2023-06-10T09:13:10;100419.88;;;10.57;100.00
63700;BME280;49845;47.130;142.766;2023-06-10T09:15:44;100421.59;;;10.58;100.00
63700;BME280;49845;47.130;142.766;2023-06-10T09:18:16;100412.09;;;10.54;100.00
63700;BME280;49845;47.130;142.766;2023-06-10T09:20:49;100424.31;;;10.52;100.00
63700;BME280;49845;47.130;142.766;2023-06-10T09:23:22;100412.09;;;10.54;100.00
63700;BME280;49845;47.130;142.766;2023-06-10T09:25:57;100405.25;;;10.44;100.00
63700;BME280;49845;47.130;142.766;2023-06-10T09:28:30;100418.22;;;10.51;100.00
63700;BME280;49845;47.130;142.766;2023-06-10T09:31:05;100418.31;;;10.44;100.00
63700;BME280;49845;47.130;142.766;2023-06-10T09:33:38;100429.56;;;10.49;100.00
63700;BME280;49845;47.130;142.766;2023-06-10T09:36:09;100431.28;;;10.50;100.00
63700;BME280;49845;47.130;142.766;2023-06-10T09:38:40;100407.19;;;10.29;100.00
63700;BME280;49845;47.130;142.766;2023-06-10T09:41:16;100422.81;;;10.32;100.00
63700;BME280;49845;47.130;142.766;2023-06-10T09:43:58;100401.22;;;10.17;100.00
63700;BME280;49845;47.130;142.766;2023-06-10T09:46:35;100442.84;;;10.32;100.00
63700;BME280;49845;47.130;142.766;2023-06-10T09:49:08;100440.22;;;10.33;100.00
63700;BME280;49845;47.130;142.766;2023-06-10T09:51:49;100440.19;;;10.36;100.00
63700;BME280;49845;47.130;142.766;2023-06-10T09:54:22;100426.38;;;10.28;100.00
63700;BME280;49845;47.130;142.766;2023-06-10T09:56:54;100434.19;;;10.28;100.00
63700;BME280;49845;47.130;142.766;2023-06-10T09:59:31;100442.03;;;10.28;100.00
63700;BME280;49845;47.130;142.766;2023-06-10T10:02:03;100437.66;;;10.29;100.00
63700;BME280;49845;47.130;142.766;2023-06-10T10:04:37;100435.06;;;10.24;100.00
63700;BME280;49845;47.130;142.766;2023-06-10T10:07:09;100438.47;;;10.32;100.00
63700;BME280;49845;47.130;142.766;2023-06-10T10:09:42;100437.63;;;10.32;100.00
63700;BME280;49845;47.130;142.766;2023-06-10T10:12:15;100440.22;;;10.33;100.00
63700;BME280;49845;47.130;142.766;2023-06-10T10:14:51;100433.22;;;10.35;100.00
63700;BME280;49845;47.130;142.766;2023-06-10T10:17:24;100398.56;;;10.18;100.00
63700;BME280;49845;47.130;142.766;2023-06-10T10:20:01;100433.16;;;10.42;100.00
63700;BME280;49845;47.130;142.766;2023-06-10T10:22:38;100434.91;;;10.38;100.00
63700;BME280;49845;47.130;142.766;2023-06-10T10:25:11;100431.44;;;10.38;100.00
63700;BME280;49845;47.130;142.766;2023-06-10T10:27:48;100417.66;;;10.25;100.00
63700;BME280;49845;47.130;142.766;2023-06-10T10:30:25;100426.22;;;10.38;100.00
63700;BME280;49845;47.130;142.766;2023-06-10T10:32:58;100390.03;;;10.07;100.00
63700;BME280;49845;47.130;142.766;2023-06-10T10:35:38;100365.00;;;9.89;100.00
63700;BME280;49845;47.130;142.766;2023-06-10T10:38:11;100437.63;;;10.32;100.00
63700;BME280;49845;47.130;142.766;2023-06-10T10:40:44;100435.94;;;10.26;100.00
63700;BME280;49845;47.130;142.766;2023-06-10T10:43:17;100447.13;;;10.38;100.00
63700;BME280;49845;47.130;142.766;2023-06-10T10:46:00;100440.19;;;10.36;100.00
63700;BME280;49845;47.130;142.766;2023-06-10T10:48:37;100411.53;;;10.27;100.00
63700;BME280;49845;47.130;142.766;2023-06-10T10:51:10;100438.31;;;10.45;100.00
63700;BME280;49845;47.130;142.766;2023-06-10T10:53:42;100447.81;;;10.50;100.00
63700;BME280;49845;47.130;142.766;2023-06-10T10:56:16;100455.66;;;10.52;100.00
63700;BME280;49845;47.130;142.766;2023-06-10T10:59:03;100463.50;;;10.50;100.00
63700;BME280;49845;47.130;142.766;2023-06-10T11:01:44;100471.38;;;10.49;100.00
63700;BME280;49845;47.130;142.766;2023-06-10T11:04:18;100465.34;;;10.42;100.00
63700;BME280;49845;47.130;142.766;2023-06-10T11:06:54;100464.50;;;10.42;100.00
63700;BME280;49845;47.130;142.766;2023-06-10T11:09:29;100457.63;;;10.34;100.00
63700;BME280;49845;47.130;142.766;2023-06-10T11:12:00;100472.34;;;10.40;100.00
63700;BME280;49845;47.130;142.766;2023-06-10T11:14:32;100468.81;;;10.43;100.00
63700;BME280;49845;47.130;142.766;2023-06-10T11:17:18;100479.25;;;10.44;100.00
63700;BME280;49845;47.130;142.766;2023-06-10T11:19:50;100472.28;;;10.46;100.00
63700;BME280;49845;47.130;142.766;2023-06-10T11:22:22;100467.00;;;10.49;100.00
63700;BME280;49845;47.130;142.766;2023-06-10T11:24:55;100474.84;;;10.51;100.00
63700;BME280;49845;47.130;142.766;2023-06-10T11:27:37;100480.03;;;10.54;100.00
63700;BME280;49845;47.130;142.766;2023-06-10T11:30:20;100473.88;;;10.56;100.00
63700;BME280;49845;47.130;142.766;2023-06-10T11:32:58;100416.78;;;10.24;100.00
63700;BME280;49845;47.130;142.766;2023-06-10T11:35:31;100474.69;;;10.60;100.00
63700;BME280;49845;47.130;142.766;2023-06-10T11:38:04;100478.16;;;10.62;100.00
63700;BME280;49845;47.130;142.766;2023-06-10T11:40:37;100351.97;;;9.87;100.00
63700;BME280;49845;47.130;142.766;2023-06-10T11:43:09;100479.03;;;10.63;100.00
63700;BME280;49845;47.130;142.766;2023-06-10T11:45:42;100434.97;;;10.36;100.00
63700;BME280;49845;47.130;142.766;2023-06-10T11:48:16;100486.84;;;10.64;100.00
63700;BME280;49845;47.130;142.766;2023-06-10T11:50:47;100483.34;;;10.65;100.00
63700;BME280;49845;47.130;142.766;2023-06-10T11:53:19;100479.06;;;10.58;100.00
63700;BME280;49845;47.130;142.766;2023-06-10T11:55:51;100486.84;;;10.64;100.00
63700;BME280;49845;47.130;142.766;2023-06-10T11:58:23;100489.47;;;10.64;100.00
63700;BME280;49845;47.130;142.766;2023-06-10T12:00:56;100461.84;;;10.43;100.00
63700;BME280;49845;47.130;142.766;2023-06-10T12:03:36;100487.69;;;10.66;100.00
63700;BME280;49845;47.130;142.766;2023-06-10T12:06:08;100484.19;;;10.67;100.00
63700;BME280;49845;47.130;142.766;2023-06-10T12:08:42;100472.88;;;10.65;100.00
63700;BME280;49845;47.130;142.766;2023-06-10T12:11:14;100451.28;;;10.52;100.00
63700;BME280;49845;47.130;142.766;2023-06-10T12:13:47;100477.13;;;10.74;100.00
63700;BME280;49845;47.130;142.766;2023-06-10T12:16:19;100465.78;;;10.76;100.00
63700;BME280;49845;47.130;142.766;2023-06-10T12:19:02;100457.94;;;10.75;100.00
63700;BME280;49845;47.130;142.766;2023-06-10T12:21:36;100452.66;;;10.78;100.00
63700;BME280;49845;47.130;142.766;2023-06-10T12:24:09;100443.91;;;10.80;100.00
63700;BME280;49845;47.130;142.766;2023-06-10T12:26:42;100442.94;;;10.88;100.00
63700;BME280;49845;47.130;142.766;2023-06-10T12:29:19;100436.00;;;10.87;100.00
63700;BME280;49845;47.130;142.766;2023-06-10T12:31:57;100420.38;;;10.84;100.00
63700;BME280;49845;47.130;142.766;2023-06-10T12:34:35;100430.66;;;10.96;100.00
63700;BME280;49845;47.130;142.766;2023-06-10T12:37:15;100434.06;;;10.98;100.00
63700;BME280;49845;47.130;142.766;2023-06-10T12:39:52;100430.59;;;10.99;100.00
63700;BME280;49845;47.130;142.766;2023-06-10T12:42:26;100432.31;;;11.00;100.00
63700;BME280;49845;47.130;142.766;2023-06-10T12:44:57;100428.84;;;10.99;100.00
63700;BME280;49845;47.130;142.766;2023-06-10T12:47:33;100417.66;;;10.88;100.00
63700;BME280;49845;47.130;142.766;2023-06-10T12:50:06;100437.53;;;11.00;100.00